Wetter Infos

Wetter-Informationen f√ľr den Flugplatz Hof

Die wichtigsten und aktuellen Wetterdaten f√ľr den Flugplatz Hof-Plauen sowie f√ľr die Umgebung haben wir hier zusammengestellt.

METARs

EDQM 211850Z 32009KT 280V360 9999 SCT009 BKN062 13/11 Q1009

EDDN 220120Z 29011KT 8000 -RA BKN006 12/11 Q1014

EDDP 220120Z 31013KT 9999 OVC007 13/12 Q1011 NOSIG

EDDC 220120Z 29010KT 260V330 9999 BKN006 13/12 Q1009

Hof Wetter

DWD – Abruf von Luftsportberichten HIER


Aktuelles Niederschlagsradar

Quelle: © Deutscher Wetterdienst
Quelle: Deutscher Wetterdienst